Time;durP1;ratioP1;P1;durP2;ratioP2;P2;SDS_P1;SDS_P2;PMS_P1;PMS_P2;Temp;Humidity;BMP_temperature;BMP_pressure;BME280_temperature;BME280_humidity;BME280_pressure;Samples;Min_cycle;Max_cycle;Signal;HPM_P1;HPM_P2
2023/10/16 00:01:19;;;;;;;;;0.33;0.33;;;;;11.35;42.52;101803.56;5098220;27;45447;-70
2023/10/16 00:03:44;;;;;;;;;3.00;1.00;;;;;11.31;42.61;101810.09;5098435;27;45343;-72
2023/10/16 00:06:11;;;;;;;;;3.67;2.67;;;;;11.30;42.58;101805.75;5114818;27;45266;-71
2023/10/16 00:08:47;;;;;;;;;1.00;1.00;;;;;11.18;42.60;101784.44;5097969;27;45667;-71
2023/10/16 00:11:18;;;;;;;;;1.67;1.67;;;;;11.20;42.22;101785.19;5113987;27;45366;-71
2023/10/16 00:13:47;;;;;;;;;1.33;1.33;;;;;11.31;42.69;101791.47;5104811;27;45261;-70
2023/10/16 00:16:15;;;;;;;;;3.67;1.00;;;;;10.82;42.98;101715.56;5109856;27;45469;-72
2023/10/16 00:18:40;;;;;;;;;0.67;0.67;;;;;11.27;43.14;101786.41;5104678;27;46636;-71
2023/10/16 00:21:06;;;;;;;;;2.00;2.00;;;;;11.12;43.21;101766.31;5098803;27;45182;-71
2023/10/16 00:23:37;;;;;;;;;2.67;2.00;;;;;11.19;43.53;101775.50;5113974;27;45460;-72
2023/10/16 00:26:03;;;;;;;;;1.00;1.00;;;;;11.20;43.49;101781.66;5098314;27;45501;-74
2023/10/16 00:28:30;;;;;;;;;1.00;1.00;;;;;11.14;44.04;101779.50;5114314;27;45640;-72
2023/10/16 00:30:55;;;;;;;;;1.67;1.67;;;;;11.28;44.18;101788.09;5097995;27;45532;-71
2023/10/16 00:33:21;;;;;;;;;3.00;2.00;;;;;11.27;44.11;101785.56;5116214;27;45240;-70
2023/10/16 00:35:48;;;;;;;;;3.00;2.00;;;;;11.25;44.91;101783.00;5104528;27;45188;-70
2023/10/16 00:38:14;;;;;;;;;2.00;2.00;;;;;11.03;45.04;101747.59;5105588;27;45656;-72
2023/10/16 00:40:51;;;;;;;;;1.33;1.00;;;;;11.17;44.89;101761.47;5082963;27;45337;-71
2023/10/16 00:43:20;;;;;;;;;2.00;2.00;;;;;11.24;45.28;101773.34;5109102;27;45365;-73
2023/10/16 00:45:53;;;;;;;;;0.00;0.00;;;;;11.23;45.08;101774.31;5106161;27;45435;-72
2023/10/16 00:48:19;;;;;;;;;3.33;1.33;;;;;10.89;45.78;101730.06;5097676;27;45432;-75
2023/10/16 00:50:48;;;;;;;;;2.33;0.00;;;;;11.16;45.78;101767.75;5108995;27;45557;-72
2023/10/16 00:53:15;;;;;;;;;1.00;1.00;;;;;11.10;45.84;101760.28;5117392;27;46289;-72
2023/10/16 00:55:41;;;;;;;;;3.00;2.00;;;;;11.14;45.76;101772.38;5100221;27;45430;-70
2023/10/16 00:58:06;;;;;;;;;0.00;0.00;;;;;10.99;46.46;101744.31;5103457;27;45481;-71
2023/10/16 01:00:36;;;;;;;;;2.00;1.00;;;;;11.07;45.92;101757.88;5105883;27;45496;-71
2023/10/16 01:03:04;;;;;;;;;1.00;1.00;;;;;11.03;46.95;101761.75;5097485;27;45280;-72
2023/10/16 01:05:33;;;;;;;;;3.00;1.33;;;;;10.94;46.89;101742.03;5105528;27;45508;-72
2023/10/16 01:08:00;;;;;;;;;2.00;2.00;;;;;10.60;46.73;101685.31;5117335;27;46891;-72
2023/10/16 01:10:25;;;;;;;;;2.00;2.00;;;;;10.80;47.13;101733.44;5101485;27;45428;-71
2023/10/16 01:12:56;;;;;;;;;2.00;2.00;;;;;10.68;47.24;101719.31;5098799;27;45529;-71
2023/10/16 01:15:22;;;;;;;;;2.67;1.00;;;;;10.76;47.66;101734.66;5104044;27;45417;-71
2023/10/16 01:17:47;;;;;;;;;2.00;2.00;;;;;10.91;47.86;101752.91;5114301;27;45739;-72
2023/10/16 01:20:16;;;;;;;;;2.00;1.00;;;;;10.82;48.52;101758.13;5109212;27;45315;-71
2023/10/16 01:22:43;;;;;;;;;1.33;1.00;;;;;10.71;48.58;101743.00;5101180;27;45427;-71
2023/10/16 01:25:09;;;;;;;;;1.00;1.00;;;;;10.74;48.74;101753.38;5097100;27;45170;-71
2023/10/16 01:27:38;;;;;;;;;2.00;2.00;;;;;10.69;48.99;101755.56;5103422;27;46408;-71
2023/10/16 01:30:07;;;;;;;;;1.00;1.00;;;;;10.69;49.17;101749.41;5098178;27;45463;-71
2023/10/16 01:32:33;;;;;;;;;0.00;0.00;;;;;10.63;49.06;101724.16;5096964;27;45536;-71
2023/10/16 01:35:04;;;;;;;;;2.00;2.00;;;;;10.78;48.68;101730.03;5113467;27;45395;-71
2023/10/16 01:37:30;;;;;;;;;4.33;2.33;;;;;10.72;49.00;101719.91;5096884;27;45763;-71
2023/10/16 01:40:11;;;;;;;;;1.33;1.33;;;;;10.78;48.76;101730.91;5097774;27;45446;-70
2023/10/16 01:42:37;;;;;;;;;1.00;1.00;;;;;10.78;48.86;101730.91;5102339;27;45529;-71
2023/10/16 01:45:03;;;;;;;;;1.67;1.67;;;;;10.85;49.16;101729.47;5108368;27;46085;-72
2023/10/16 01:47:29;;;;;;;;;1.33;1.33;;;;;10.36;49.14;101660.66;5096865;27;46422;-72
2023/10/16 01:49:54;;;;;;;;;2.00;1.67;;;;;10.55;49.39;101686.66;5099480;27;45545;-71
2023/10/16 01:52:21;;;;;;;;;2.33;1.33;;;;;10.67;49.13;101706.97;5100410;27;45459;-71
2023/10/16 01:54:49;;;;;;;;;1.00;1.00;;;;;10.82;48.90;101726.22;5087925;27;45646;-71
2023/10/16 01:57:15;;;;;;;;;3.00;2.00;;;;;10.84;48.74;101724.25;5111665;27;46357;-71
2023/10/16 01:59:42;;;;;;;;;3.33;1.67;;;;;10.80;49.33;101717.47;5114764;27;45448;-72
2023/10/16 02:02:09;;;;;;;;;4.67;2.00;;;;;10.78;49.64;101730.03;5107276;27;45515;-71
2023/10/16 02:04:36;;;;;;;;;4.00;2.67;;;;;10.58;49.88;101695.22;5109669;27;45243;-71
2023/10/16 02:07:01;;;;;;;;;3.00;3.00;;;;;10.57;49.79;101698.84;5105691;27;45795;-70
2023/10/16 02:09:27;;;;;;;;;1.00;1.00;;;;;10.43;50.25;101677.84;5101962;27;45292;-70
2023/10/16 02:11:52;;;;;;;;;1.33;1.00;;;;;10.42;50.49;101688.59;5112871;27;45281;-69
2023/10/16 02:14:20;;;;;;;;;4.67;1.00;;;;;10.32;50.45;101664.53;5094214;27;45357;-72
2023/10/16 02:16:47;;;;;;;;;1.00;1.00;;;;;10.51;50.75;101699.34;5101011;27;45692;-71
2023/10/16 02:19:12;;;;;;;;;1.00;1.00;;;;;10.45;51.23;101697.19;5099991;27;45367;-71
2023/10/16 02:21:40;;;;;;;;;0.67;0.67;;;;;10.22;50.93;101667.09;5108267;27;45651;-71
2023/10/16 02:24:06;;;;;;;;;1.67;1.67;;;;;10.49;50.90;101697.78;5100074;27;45379;-72
2023/10/16 02:26:34;;;;;;;;;1.00;1.00;;;;;10.52;51.05;101687.75;5115133;27;45555;-71
2023/10/16 02:29:00;;;;;;;;;2.67;2.67;;;;;10.46;50.61;101682.06;5089544;27;45619;-72
2023/10/16 02:31:29;;;;;;;;;2.00;2.00;;;;;10.10;50.74;101604.22;5114307;27;45418;-71
2023/10/16 02:33:56;;;;;;;;;2.00;2.00;;;;;10.25;51.31;101650.03;5109499;27;45344;-72
2023/10/16 02:36:22;;;;;;;;;2.00;1.33;;;;;10.37;51.37;101670.34;5112332;27;45736;-72
2023/10/16 02:38:48;;;;;;;;;1.67;1.67;;;;;10.33;51.44;101682.19;5114896;27;45484;-72
2023/10/16 02:41:19;;;;;;;;;2.00;1.00;;;;;10.24;51.46;101666.97;5103315;27;45228;-73
2023/10/16 02:43:46;;;;;;;;;1.00;1.00;;;;;9.99;51.46;101628.94;5103683;27;45610;-71
2023/10/16 02:46:13;;;;;;;;;3.00;2.00;;;;;10.29;51.55;101680.72;5107247;27;45976;-71
2023/10/16 02:48:45;;;;;;;;;1.67;1.67;;;;;10.26;51.41;101670.34;5099381;27;45290;-72
2023/10/16 02:51:11;;;;;;;;;1.00;1.00;;;;;10.13;51.68;101656.28;5107751;27;45505;-72
2023/10/16 02:53:41;;;;;;;;;3.00;2.67;;;;;10.27;51.99;101678.19;5105755;27;45220;-72
2023/10/16 02:56:14;;;;;;;;;2.00;2.00;;;;;10.21;51.73;101672.47;5109004;27;45810;-71
2023/10/16 02:58:46;;;;;;;;;1.00;1.00;;;;;9.93;51.75;101626.78;5104632;27;45261;-70
2023/10/16 03:01:18;;;;;;;;;1.67;1.00;;;;;10.26;51.67;101681.81;5102799;27;45258;-70
2023/10/16 03:03:45;;;;;;;;;1.67;1.67;;;;;10.26;51.71;101673.00;5105377;27;45636;-71
2023/10/16 03:06:11;;;;;;;;;1.00;1.00;;;;;10.30;51.31;101674.44;5099675;27;46428;-71
2023/10/16 03:08:37;;;;;;;;;3.00;1.33;;;;;10.32;51.27;101681.34;5088234;27;45277;-72
2023/10/16 03:11:13;;;;;;;;;3.67;3.67;;;;;10.27;51.30;101682.66;5098782;27;46226;-71
2023/10/16 03:13:51;;;;;;;;;1.00;1.00;;;;;10.17;51.99;101679.81;5107921;27;45260;-71
2023/10/16 03:16:23;;;;;;;;;2.00;2.00;;;;;10.03;52.08;101664.13;5107746;27;46277;-71
2023/10/16 03:18:49;;;;;;;;;2.33;2.00;;;;;10.00;52.55;101680.25;5110540;27;45318;-71
2023/10/16 03:23:50;;;;;;;;;2.00;1.33;;;;;9.56;52.82;101598.69;5107652;27;45291;-70
2023/10/16 03:26:28;;;;;;;;;3.00;3.00;;;;;9.93;53.07;101663.97;5080694;27;47569;-71
2023/10/16 03:29:00;;;;;;;;;2.00;2.00;;;;;9.63;52.89;101613.19;5103468;27;45367;-71
2023/10/16 03:31:27;;;;;;;;;2.00;2.00;;;;;9.84;53.38;101664.69;5110323;27;45442;-71
2023/10/16 03:33:56;;;;;;;;;3.33;2.00;;;;;9.85;53.92;101677.00;5107524;27;45430;-72
2023/10/16 03:36:25;;;;;;;;;2.00;2.00;;;;;9.72;53.45;101650.50;5098101;27;45865;-72
2023/10/16 03:38:51;;;;;;;;;2.00;2.00;;;;;9.77;53.78;101650.16;5107227;27;45234;-72
2023/10/16 03:41:28;;;;;;;;;2.67;2.67;;;;;9.81;53.77;101659.59;5098887;27;45346;-70
2023/10/16 03:43:58;;;;;;;;;1.67;1.67;;;;;9.79;54.20;101661.50;5106748;27;45379;-71
2023/10/16 03:46:27;;;;;;;;;7.33;3.00;;;;;9.80;53.96;101657.88;5098206;27;46568;-72
2023/10/16 03:48:52;;;;;;;;;3.00;2.00;;;;;9.73;53.74;101646.03;5098034;27;46176;-71
2023/10/16 03:51:18;;;;;;;;;2.00;2.00;;;;;9.48;53.88;101598.44;5086631;27;45273;-71
2023/10/16 03:53:44;;;;;;;;;2.00;2.00;;;;;9.81;54.14;101664.91;5106972;27;45517;-74
2023/10/16 03:56:11;;;;;;;;;3.67;2.33;;;;;9.70;54.52;101649.78;5106105;27;47093;-70
2023/10/16 03:58:41;;;;;;;;;2.00;2.00;;;;;9.62;54.54;101646.88;5098158;27;45252;-72
2023/10/16 04:01:07;;;;;;;;;2.67;2.00;;;;;9.59;54.75;101648.88;5100485;27;45268;-71
2023/10/16 04:03:56;;;;;;;;;3.00;1.00;;;;;9.65;54.60;101664.38;5094752;27;45756;-70
2023/10/16 04:06:23;;;;;;;;;3.33;2.33;;;;;9.65;54.53;101662.56;5098656;27;45724;-70
2023/10/16 04:08:53;;;;;;;;;2.00;2.00;;;;;9.65;55.11;101669.69;5098187;27;45248;-71
2023/10/16 04:11:21;;;;;;;;;3.67;3.00;;;;;9.59;55.11;101659.50;5105447;27;45494;-72
2023/10/16 04:13:52;;;;;;;;;2.33;2.33;;;;;9.51;54.80;101651.28;5098420;27;45212;-73
2023/10/16 04:21:45;;;;;;;;;1.33;1.33;;;;;9.59;55.23;101660.34;5113407;27;45445;-71
2023/10/16 04:29:25;;;;;;;;;2.00;2.00;;;;;9.31;55.16;101605.00;5097558;27;45292;-72
2023/10/16 04:37:49;;;;;;;;;2.00;2.00;;;;;9.62;55.21;101656.66;5110534;27;46378;-71
2023/10/16 04:50:36;;;;;;;;;2.00;1.00;;;;;9.75;55.11;101633.50;5113409;27;45353;-70
2023/10/16 04:53:11;;;;;;;;;2.00;2.00;;;;;9.70;55.35;101622.38;5086908;27;45509;-70
2023/10/16 05:03:35;;;;;;;;;2.00;2.00;;;;;9.66;54.89;101608.50;5103178;27;45348;-70
2023/10/16 05:08:39;;;;;;;;;2.67;1.67;;;;;9.39;55.65;101565.44;5105595;27;46456;-71
2023/10/16 05:16:36;;;;;;;;;1.67;1.00;;;;;9.27;56.04;101612.34;5098387;27;45349;-72
2023/10/16 05:19:17;;;;;;;;;5.00;2.00;;;;;9.18;56.48;101599.75;5096561;27;45454;-71
2023/10/16 06:16:03;;;;;;;;;2.67;2.00;;;;;9.32;55.78;101607.53;5106844;27;45466;-73
2023/10/16 06:18:30;;;;;;;;;2.00;2.00;;;;;9.43;55.70;101618.22;5098168;27;45305;-71
2023/10/16 06:21:00;;;;;;;;;4.00;2.33;;;;;9.33;55.62;101580.03;5090009;27;45564;-73
2023/10/16 06:23:28;;;;;;;;;4.00;3.00;;;;;9.48;55.71;101599.28;5110820;27;45774;-76
2023/10/16 06:25:54;;;;;;;;;5.67;2.67;;;;;9.56;55.50;101604.00;5101218;27;45308;-71
2023/10/16 06:28:21;;;;;;;;;4.00;2.67;;;;;9.27;55.16;101543.34;5111625;27;45420;-73
2023/10/16 06:30:46;;;;;;;;;1.33;1.33;;;;;9.62;55.26;101616.81;5105461;27;45403;-72
2023/10/16 06:33:14;;;;;;;;;2.00;1.00;;;;;9.55;55.21;101607.63;5110524;27;46680;-72
2023/10/16 06:35:41;;;;;;;;;4.33;3.33;;;;;9.61;55.41;101594.75;5099483;27;45443;-72
2023/10/16 06:38:11;;;;;;;;;7.00;4.67;;;;;9.40;55.49;101570.63;5101677;27;45474;-71
2023/10/16 06:40:40;;;;;;;;;6.67;5.33;;;;;9.29;55.32;101540.59;5096862;27;45470;-72
2023/10/16 06:43:13;;;;;;;;;5.00;5.00;;;;;9.53;55.37;101588.31;5107081;27;46506;-71
2023/10/16 06:45:49;;;;;;;;;5.00;4.00;;;;;9.20;55.07;101528.00;5099196;27;45258;-71
2023/10/16 06:48:19;;;;;;;;;3.00;3.00;;;;;9.67;55.18;101596.06;5100223;27;45442;-73
2023/10/16 06:50:52;;;;;;;;;4.00;2.00;;;;;9.85;54.58;101602.63;5115005;27;45248;-72
2023/10/16 06:53:18;;;;;;;;;3.33;2.00;;;;;9.72;54.78;101578.81;5108616;27;45724;-72
2023/10/16 06:55:45;;;;;;;;;4.00;3.67;;;;;9.89;54.64;101612.03;5098858;27;45331;-70
2023/10/16 06:58:11;;;;;;;;;4.33;4.33;;;;;9.90;54.67;101616.38;5107651;27;45393;-72
2023/10/16 07:00:38;;;;;;;;;4.67;2.67;;;;;9.91;54.30;101591.53;5099163;27;45471;-73
2023/10/16 07:03:09;;;;;;;;;3.00;2.00;;;;;9.98;53.86;101587.41;5107481;27;47348;-71
2023/10/16 07:05:44;;;;;;;;;2.67;2.00;;;;;10.12;54.06;101596.13;5112289;27;45526;-72
2023/10/16 07:08:17;;;;;;;;;5.67;4.00;;;;;10.21;53.65;101592.75;5116239;27;45413;-72
2023/10/16 07:10:52;;;;;;;;;3.00;3.00;;;;;10.27;52.87;101597.63;5090448;27;45442;-72
2023/10/16 07:13:29;;;;;;;;;3.00;3.00;;;;;10.23;53.14;101582.88;5112544;27;45655;-71
2023/10/16 07:15:59;;;;;;;;;2.00;2.00;;;;;10.28;53.16;101589.53;5101984;27;45292;-71
2023/10/16 07:18:26;;;;;;;;;5.33;5.33;;;;;10.31;52.76;101585.78;5108716;27;45170;-72
2023/10/16 07:21:17;;;;;;;;;3.67;3.67;;;;;10.36;52.56;101592.41;5090934;27;45605;-71
2023/10/16 07:23:39;;;;;;;;;5.00;4.00;;;;;10.40;52.55;101592.16;5104827;27;46450;-71
2023/10/16 07:26:16;;;;;;;;;3.00;2.00;;;;;10.34;52.55;101590.84;5098018;27;45403;-71
2023/10/16 07:28:41;;;;;;;;;3.33;3.33;;;;;10.36;52.95;101596.88;5097179;27;45430;-73
2023/10/16 07:31:10;;;;;;;;;5.33;3.33;;;;;10.43;52.55;101597.25;5099306;27;45439;-72
2023/10/16 07:33:35;;;;;;;;;3.00;2.00;;;;;10.53;52.59;101599.03;5106601;27;47166;-74
2023/10/16 07:36:01;;;;;;;;;2.67;2.67;;;;;10.55;52.11;101593.59;5102165;27;45445;-72
2023/10/16 07:38:28;;;;;;;;;2.00;2.00;;;;;10.61;51.91;101604.59;5096623;27;45509;-71
2023/10/16 07:40:54;;;;;;;;;3.00;2.67;;;;;10.71;51.98;101601.19;5102429;27;45568;-73
2023/10/16 07:43:26;;;;;;;;;3.00;3.00;;;;;10.75;51.24;101607.94;5103724;27;46572;-73
2023/10/16 07:48:46;;;;;;;;;4.00;3.00;;;;;10.87;51.88;101606.97;5112411;27;45348;-72
2023/10/16 07:51:15;;;;;;;;;6.00;3.00;;;;;10.91;51.07;101597.75;5109066;27;45548;-72
2023/10/16 07:53:40;;;;;;;;;4.00;2.67;;;;;10.68;51.20;101565.06;5102156;27;46432;-73
2023/10/16 07:56:19;;;;;;;;;2.33;2.33;;;;;10.80;51.86;101595.13;5113343;27;45514;-72
2023/10/16 07:58:54;;;;;;;;;2.67;2.67;;;;;11.01;51.59;101611.97;5101127;27;45501;-74
2023/10/16 08:01:32;;;;;;;;;5.00;4.00;;;;;11.07;50.82;101595.53;5113278;27;45272;-73
2023/10/16 08:03:58;;;;;;;;;4.00;4.00;;;;;11.26;50.74;101601.03;5108799;27;46071;-73
2023/10/16 08:06:25;;;;;;;;;4.00;4.00;;;;;11.32;50.61;101580.19;5079220;27;45544;-73
2023/10/16 08:11:43;;;;;;;;;3.00;3.00;;;;;11.45;50.57;101597.66;5078298;27;45594;-71
2023/10/16 08:14:09;;;;;;;;;4.00;4.00;;;;;11.49;50.48;101608.91;5089299;27;48257;-75
2023/10/16 08:16:35;;;;;;;;;4.33;3.00;;;;;11.36;50.53;101582.44;5094072;27;46002;-73
2023/10/16 08:19:00;;;;;;;;;4.00;4.00;;;;;11.55;50.55;101592.41;5094786;27;45648;-72
2023/10/16 08:21:26;;;;;;;;;4.00;4.00;;;;;11.61;49.87;101572.38;5094070;27;45631;-73
2023/10/16 08:23:53;;;;;;;;;3.00;3.00;;;;;11.78;49.81;101580.66;5095216;27;46302;-73
2023/10/16 08:26:28;;;;;;;;;7.00;4.00;;;;;11.80;49.39;101586.69;5098950;27;45390;-73
2023/10/16 08:29:19;;;;;;;;;3.00;3.00;;;;;11.76;49.39;101585.25;5106488;27;45415;-73
2023/10/16 08:31:50;;;;;;;;;2.67;1.67;;;;;11.69;49.81;101578.78;5110214;27;45420;-73
2023/10/16 08:34:21;;;;;;;;;4.33;3.33;;;;;11.76;49.21;101569.28;5106285;27;45474;-75
2023/10/16 08:36:52;;;;;;;;;3.00;3.00;;;;;11.81;49.55;101572.44;5098704;27;45576;-74
2023/10/16 08:39:19;;;;;;;;;1.67;1.67;;;;;11.71;49.50;101568.81;5097637;27;45515;-73
2023/10/16 08:41:51;;;;;;;;;2.00;2.00;;;;;11.71;49.35;101571.50;5096487;27;45508;-73
2023/10/16 08:44:18;;;;;;;;;3.00;3.00;;;;;11.73;49.31;101580.19;5102047;27;46940;-73
2023/10/16 08:47:24;;;;;;;;;4.00;4.00;;;;;11.77;49.62;101568.28;5093913;27;45533;-72
2023/10/16 08:49:39;;;;;;;;;5.67;4.00;;;;;11.68;49.62;101545.13;5102921;27;45797;-73
2023/10/16 08:52:06;;;;;;;;;5.00;5.00;;;;;11.77;49.17;101546.97;5103137;27;46710;-72
2023/10/16 08:57:19;;;;;;;;;4.67;3.00;;;;;12.11;49.09;101549.41;5098477;27;45571;-73
2023/10/16 08:59:49;;;;;;;;;4.00;4.00;;;;;12.09;48.39;101533.56;5102567;27;45359;-72
2023/10/16 09:02:17;;;;;;;;;3.67;3.67;;;;;12.15;49.12;101556.16;5103231;27;45575;-74
2023/10/16 09:04:44;;;;;;;;;5.67;5.67;;;;;12.12;48.80;101537.78;5101356;27;47805;-73
2023/10/16 09:07:16;;;;;;;;;5.67;3.00;;;;;12.07;48.73;101534.69;5098983;27;45621;-73
2023/10/16 09:09:43;;;;;;;;;3.00;3.00;;;;;12.18;48.70;101558.56;5097274;27;45546;-71
2023/10/16 09:12:12;;;;;;;;;3.67;3.67;;;;;12.04;48.92;101509.16;5104604;27;45496;-73
2023/10/16 09:14:39;;;;;;;;;6.33;5.33;;;;;12.35;48.21;101533.91;5100125;27;46205;-72
2023/10/16 09:17:06;;;;;;;;;6.00;3.33;;;;;12.47;48.05;101543.50;5113951;27;45368;-72
2023/10/16 09:19:35;;;;;;;;;4.00;4.00;;;;;12.54;48.35;101545.63;5090155;27;45351;-74
2023/10/16 09:22:05;;;;;;;;;4.00;3.67;;;;;12.68;47.93;101545.22;5093237;27;45703;-79
2023/10/16 09:24:33;;;;;;;;;5.33;3.00;;;;;12.75;47.96;101543.69;5106909;27;46263;-72
2023/10/16 09:27:00;;;;;;;;;4.67;3.00;;;;;12.71;47.74;101532.47;5099008;27;45463;-74
2023/10/16 09:29:27;;;;;;;;;3.33;3.33;;;;;12.88;47.54;101530.94;5100942;27;45534;-72
2023/10/16 09:31:53;;;;;;;;;2.00;2.00;;;;;13.06;46.71;101533.75;5103318;27;45478;-73
2023/10/16 09:34:25;;;;;;;;;4.00;4.00;;;;;13.21;46.79;101521.66;5094106;27;46738;-73
2023/10/16 09:39:40;;;;;;;;;5.33;4.00;;;;;13.32;46.54;101518.00;5102552;27;45546;-70
2023/10/16 09:42:14;;;;;;;;;5.00;5.00;;;;;13.51;45.75;101501.94;5102514;27;45460;-73
2023/10/16 09:45:29;;;;;;;;;5.00;4.00;;;;;13.52;46.25;101506.31;5106434;27;45708;-73
2023/10/16 09:47:35;;;;;;;;;5.33;4.00;;;;;13.64;45.54;101502.47;5091240;27;45510;-73
2023/10/16 09:50:05;;;;;;;;;2.67;2.67;;;;;13.86;45.40;101511.97;5110905;27;45360;-72
2023/10/16 09:52:33;;;;;;;;;2.67;2.67;;;;;14.01;44.87;101506.97;5114197;27;45529;-73
2023/10/16 09:54:59;;;;;;;;;4.67;3.67;;;;;13.78;44.75;101486.94;5103812;27;45830;-73
2023/10/16 09:57:30;;;;;;;;;2.33;2.33;;;;;13.45;44.46;101469.63;5107548;27;45446;-74
2023/10/16 10:02:42;;;;;;;;;5.33;4.33;;;;;13.58;45.15;101484.34;5098028;27;45366;-74
2023/10/16 10:05:12;;;;;;;;;6.00;4.00;;;;;13.55;45.47;101481.97;5109135;27;45999;-72
2023/10/16 10:07:47;;;;;;;;;4.00;2.00;;;;;13.53;45.35;101481.28;5079918;27;46365;-73
2023/10/16 10:13:23;;;;;;;;;4.00;2.00;;;;;13.36;45.60;101471.34;5101878;27;45340;-73
2023/10/16 10:15:51;;;;;;;;;3.00;2.67;;;;;13.34;45.48;101470.63;5099992;27;45669;-73
2023/10/16 10:18:31;;;;;;;;;3.33;3.33;;;;;13.32;45.86;101475.28;5105179;27;45464;-73
2023/10/16 10:21:03;;;;;;;;;2.00;2.00;;;;;13.17;46.00;101466.00;5113876;27;45537;-73
2023/10/16 10:23:32;;;;;;;;;4.33;3.33;;;;;13.10;46.25;101482.59;5105958;27;45261;-75
2023/10/16 10:26:02;;;;;;;;;2.00;2.00;;;;;12.90;46.22;101438.22;5089592;27;47713;-72
2023/10/16 10:28:36;;;;;;;;;4.00;4.00;;;;;13.06;46.18;101459.00;5103904;27;45454;-73
2023/10/16 10:31:04;;;;;;;;;4.00;4.00;;;;;13.10;46.83;101461.22;5097182;27;45476;-74
2023/10/16 10:33:58;;;;;;;;;3.00;3.00;;;;;13.08;46.01;101444.53;5099367;27;45444;-74
2023/10/16 10:36:34;;;;;;;;;7.00;4.00;;;;;12.94;46.60;101444.94;5097910;27;45747;-74
2023/10/16 10:39:21;;;;;;;;;3.67;3.00;;;;;13.07;46.59;101440.16;5101909;27;45645;-74
2023/10/16 10:41:48;;;;;;;;;4.00;4.00;;;;;12.91;46.67;101412.38;5092175;27;45319;-73
2023/10/16 10:44:15;;;;;;;;;4.00;4.00;;;;;12.82;46.92;101382.06;5115221;27;45402;-75
2023/10/16 10:46:42;;;;;;;;;6.00;5.00;;;;;13.20;46.31;101426.53;5101565;27;46810;-74
2023/10/16 10:49:12;;;;;;;;;3.67;2.67;;;;;13.21;46.31;101438.03;5107731;27;45413;-74
2023/10/16 10:51:44;;;;;;;;;3.00;3.00;;;;;12.95;46.36;101379.91;5105562;27;45557;-74
2023/10/16 10:54:12;;;;;;;;;3.00;3.00;;;;;13.06;46.07;101418.97;5097435;27;45349;-73
2023/10/16 10:56:48;;;;;;;;;5.67;4.00;;;;;12.79;46.34;101372.50;5086844;27;48645;-74
2023/10/16 10:59:39;;;;;;;;;4.33;4.33;;;;;13.27;45.98;101429.47;5100571;27;45563;-75
2023/10/16 11:04:53;;;;;;;;;5.00;4.67;;;;;13.29;46.08;101428.34;5102954;27;45769;-72
2023/10/16 11:07:29;;;;;;;;;5.00;3.00;;;;;13.47;45.94;101436.44;5113644;27;46535;-73
2023/10/16 11:09:59;;;;;;;;;5.00;4.00;;;;;13.62;45.94;101426.97;5102295;27;45501;-73
2023/10/16 11:12:24;;;;;;;;;4.00;3.33;;;;;13.80;45.29;101415.47;5113573;27;45398;-74
2023/10/16 11:14:51;;;;;;;;;2.00;2.00;;;;;13.95;44.19;101408.66;5097239;27;45432;-74
2023/10/16 11:17:51;;;;;;;;;3.67;3.67;;;;;13.90;43.93;101400.25;5097526;27;45805;-74
2023/10/16 11:20:28;;;;;;;;;3.33;3.33;;;;;13.89;43.73;101399.41;5077512;27;45454;-74
2023/10/16 11:22:57;;;;;;;;;2.00;2.00;;;;;13.94;43.94;101380.22;5099145;27;45477;-73
2023/10/16 11:25:28;;;;;;;;;1.00;1.00;;;;;13.94;43.90;101364.19;5105968;27;45441;-73
2023/10/16 11:27:57;;;;;;;;;5.67;3.00;;;;;13.57;43.47;101317.00;5106653;27;46802;-75
2023/10/16 11:30:26;;;;;;;;;1.67;1.67;;;;;13.98;43.58;101371.75;5095014;27;45606;-72
2023/10/16 11:32:53;;;;;;;;;6.67;4.33;;;;;13.95;43.71;101355.19;5107744;27;45289;-72
2023/10/16 11:35:19;;;;;;;;;3.33;3.33;;;;;13.94;43.24;101366.88;5103684;27;45502;-74
2023/10/16 11:37:50;;;;;;;;;7.00;3.33;;;;;14.12;43.02;101373.09;5100922;27;45284;-74
2023/10/16 11:40:19;;;;;;;;;2.00;2.00;;;;;14.22;43.26;101365.84;5106347;27;45540;-73
2023/10/16 11:42:52;;;;;;;;;2.67;2.67;;;;;14.14;42.87;101336.34;5106462;27;45533;-74
2023/10/16 11:45:23;;;;;;;;;4.00;2.00;;;;;14.19;43.19;101342.06;5102622;27;45411;-73
2023/10/16 11:48:27;;;;;;;;;2.67;2.67;;;;;14.32;43.05;101331.81;5109361;27;45805;-74
2023/10/16 11:50:40;;;;;;;;;1.67;1.00;;;;;14.42;42.53;101330.91;5103998;27;45371;-73
2023/10/16 11:53:09;;;;;;;;;1.00;1.00;;;;;14.43;42.40;101329.91;5107353;27;45461;-73
2023/10/16 11:55:38;;;;;;;;;1.33;1.00;;;;;14.28;42.63;101278.78;5094188;27;45476;-74
2023/10/16 11:58:07;;;;;;;;;3.00;3.00;;;;;14.65;42.44;101326.78;5108135;27;45882;-74
2023/10/16 12:00:35;;;;;;;;;3.00;3.00;;;;;14.40;41.71;101269.50;5097899;27;45401;-74
2023/10/16 12:03:07;;;;;;;;;2.33;2.33;;;;;14.69;41.76;101300.53;5080249;27;45556;-73
2023/10/16 12:05:34;;;;;;;;;0.00;0.00;;;;;14.80;41.13;101302.94;5105787;27;45340;-74
2023/10/16 12:07:59;;;;;;;;;3.00;2.00;;;;;14.77;40.92;101287.19;5106091;27;45836;-73
2023/10/16 12:10:28;;;;;;;;;2.00;2.00;;;;;14.84;41.25;101281.06;5097385;27;45263;-74
2023/10/16 12:12:55;;;;;;;;;1.00;1.00;;;;;14.98;40.68;101284.13;5112808;27;45443;-74
2023/10/16 12:15:22;;;;;;;;;2.00;2.00;;;;;14.76;39.12;101270.28;5098620;27;45372;-75
2023/10/16 12:17:48;;;;;;;;;5.00;1.67;;;;;14.43;39.04;101206.84;5084854;27;48188;-74
2023/10/16 12:20:15;;;;;;;;;7.33;7.33;;;;;14.90;38.86;101261.69;5108934;27;45437;-74
2023/10/16 12:22:40;;;;;;;;;28.33;21.00;;;;;14.57;38.83;101200.94;5113617;27;45376;-73
2023/10/16 12:25:09;;;;;;;;;1.00;1.00;;;;;14.98;39.13;101260.88;5086360;27;45304;-73
2023/10/16 12:27:36;;;;;;;;;1.00;1.00;;;;;15.03;38.70;101268.44;5079733;27;45815;-72
2023/10/16 12:30:03;;;;;;;;;2.00;1.00;;;;;15.15;38.72;101286.72;5097275;27;45385;-75
2023/10/16 12:32:29;;;;;;;;;3.00;3.00;;;;;15.15;38.49;101278.69;5087450;27;45326;-73
2023/10/16 12:34:54;;;;;;;;;1.00;1.00;;;;;15.10;37.50;101258.75;5104484;27;45475;-72
2023/10/16 12:37:22;;;;;;;;;3.00;3.00;;;;;14.95;37.62;101214.84;5113356;27;46285;-74
2023/10/16 12:39:52;;;;;;;;;2.00;2.00;;;;;15.31;37.33;101264.53;5094584;27;45774;-73
2023/10/16 12:42:18;;;;;;;;;0.00;0.00;;;;;15.36;37.27;101251.47;5111483;27;45527;-72
2023/10/16 12:44:44;;;;;;;;;2.00;1.00;;;;;15.15;36.61;101211.75;5109080;27;45885;-71
2023/10/16 12:47:11;;;;;;;;;0.33;0.00;;;;;15.23;36.71;101223.50;5105611;27;46718;-72
2023/10/16 12:49:37;;;;;;;;;0.00;0.00;;;;;15.46;36.36;101246.84;5106143;27;45387;-76
2023/10/16 12:52:03;;;;;;;;;2.00;2.00;;;;;15.41;36.59;101249.16;5097249;27;45478;-73
2023/10/16 12:54:28;;;;;;;;;0.00;0.00;;;;;15.36;36.94;101240.75;5090455;27;45599;-74
2023/10/16 12:56:53;;;;;;;;;3.00;1.00;;;;;15.37;36.85;101247.81;5105201;27;59678;-73
2023/10/16 12:59:20;;;;;;;;;1.00;1.00;;;;;15.44;37.17;101245.31;5103950;27;45502;-73
2023/10/16 13:01:49;;;;;;;;;1.67;1.00;;;;;15.22;37.37;101174.44;5107354;27;45254;-74
2023/10/16 13:04:18;;;;;;;;;1.00;1.00;;;;;15.50;36.80;101232.09;5097768;27;45514;-74
2023/10/16 13:06:46;;;;;;;;;1.00;1.00;;;;;15.38;35.83;101201.25;5105276;27;45538;-75
2023/10/16 13:09:16;;;;;;;;;0.00;0.00;;;;;15.32;35.57;101209.94;5105014;27;45518;-72
2023/10/16 13:11:42;;;;;;;;;2.33;1.00;;;;;15.13;35.73;101202.19;5096499;27;45426;-73
2023/10/16 13:14:08;;;;;;;;;0.00;0.00;;;;;15.08;35.96;101216.06;5117163;27;45628;-72
2023/10/16 13:16:33;;;;;;;;;0.67;0.67;;;;;15.03;36.98;101215.72;5110118;27;45447;-74
2023/10/16 13:18:59;;;;;;;;;1.67;0.33;;;;;14.85;37.65;101178.34;5096296;27;52556;-73
2023/10/16 13:21:34;;;;;;;;;3.00;2.00;;;;;15.09;37.54;101217.75;5096760;27;45491;-72
2023/10/16 13:24:09;;;;;;;;;2.00;0.33;;;;;15.00;37.86;101207.16;5106249;27;45397;-74
2023/10/16 13:26:38;;;;;;;;;1.33;1.33;;;;;14.87;38.38;101205.78;5107486;27;46442;-74
2023/10/16 13:29:08;;;;;;;;;1.67;1.67;;;;;14.70;38.50;101204.03;5116340;27;45497;-73
2023/10/16 13:31:37;;;;;;;;;2.00;2.00;;;;;14.71;38.86;101203.03;5091494;27;45371;-72
2023/10/16 13:34:05;;;;;;;;;3.00;2.00;;;;;14.69;38.40;101178.25;5104208;27;45320;-74
2023/10/16 13:36:35;;;;;;;;;2.00;2.00;;;;;14.77;38.74;101197.03;5097034;27;45466;-74